createdAt,value
2019-02-12T00:03:27.248Z,7.90
2019-02-12T00:08:30.746Z,9.00
2019-02-12T00:13:33.460Z,13.50
2019-02-12T00:18:36.964Z,8.87
2019-02-12T00:23:39.561Z,10.60
2019-02-12T00:28:42.867Z,11.50
2019-02-12T00:33:46.042Z,13.33
2019-02-12T00:38:49.206Z,8.27
2019-02-12T00:43:52.471Z,22.20
2019-02-12T00:48:55.360Z,13.43
2019-02-12T00:53:58.738Z,8.63
2019-02-12T00:59:01.939Z,11.70
2019-02-12T01:04:05.493Z,5.83
2019-02-12T01:09:09.076Z,8.77
2019-02-12T01:14:11.597Z,12.60
2019-02-12T01:19:15.161Z,10.43
2019-02-12T01:24:18.680Z,11.53
2019-02-12T01:29:22.264Z,18.47
2019-02-12T01:34:25.505Z,11.27
2019-02-12T01:39:29.034Z,14.93
2019-02-12T01:44:32.259Z,11.70
2019-02-12T01:49:35.577Z,11.60
2019-02-12T01:54:38.783Z,6.80
2019-02-12T01:59:41.685Z,5.57
2019-02-12T02:04:45.011Z,11.03
2019-02-12T02:09:48.204Z,6.10
2019-02-12T02:14:51.116Z,10.70
2019-02-12T02:19:55.445Z,8.60
2019-02-12T02:24:58.657Z,9.60
2019-02-12T02:30:01.256Z,15.73
2019-02-12T02:35:04.358Z,9.73
2019-02-12T02:40:08.165Z,17.27
2019-02-12T02:45:12.173Z,10.97
2019-02-12T02:50:15.373Z,15.33
2019-02-12T02:55:18.258Z,15.07
2019-02-12T03:00:21.711Z,15.00
2019-02-12T03:05:24.948Z,7.93
2019-02-12T03:10:27.940Z,15.83
2019-02-12T03:15:31.484Z,8.67
2019-02-12T03:20:34.901Z,10.07
2019-02-12T03:25:39.229Z,14.20
2019-02-12T03:30:43.164Z,9.20
2019-02-12T03:35:45.623Z,15.70
2019-02-12T03:40:48.785Z,11.37
2019-02-12T03:45:53.812Z,12.97
2019-02-12T03:50:57.010Z,12.37
2019-02-12T03:56:00.200Z,16.13
2019-02-12T04:01:03.446Z,11.30
2019-02-12T04:06:06.603Z,10.60
2019-02-12T04:11:09.500Z,18.70
2019-02-12T04:16:12.159Z,12.33
2019-02-12T04:21:15.358Z,17.03
2019-02-12T04:26:19.803Z,19.07
2019-02-12T04:31:23.307Z,10.00
2019-02-12T04:36:25.850Z,5.50
2019-02-12T04:41:29.055Z,25.13
2019-02-12T04:46:32.574Z,25.90
2019-02-12T04:51:35.765Z,13.00
2019-02-12T04:56:39.359Z,19.67
2019-02-12T05:01:42.502Z,23.20
2019-02-12T05:06:45.726Z,19.93
2019-02-12T05:11:59.885Z,14.17
2019-02-12T05:17:02.761Z,19.67
2019-02-12T05:22:05.982Z,16.70
2019-02-12T05:27:09.171Z,18.77
2019-02-12T05:32:12.284Z,21.67
2019-02-12T05:37:14.939Z,16.73
2019-02-12T05:42:17.489Z,26.90
2019-02-12T05:47:21.501Z,14.63
2019-02-12T05:52:24.401Z,17.83
2019-02-12T05:57:27.603Z,11.63
2019-02-12T06:02:31.143Z,13.60
2019-02-12T06:07:34.397Z,19.83
2019-02-12T06:12:37.995Z,19.37
2019-02-12T06:17:41.464Z,10.57
2019-02-12T06:22:44.621Z,13.23
2019-02-12T06:27:47.847Z,10.23
2019-02-12T06:32:51.101Z,13.43
2019-02-12T06:37:54.010Z,20.80
2019-02-12T06:42:57.482Z,19.70
2019-02-12T06:48:00.430Z,14.30
2019-02-12T06:53:12.037Z,9.27
2019-02-12T06:58:08.423Z,18.80
2019-02-12T07:03:19.722Z,10.30
2019-02-12T07:08:40.839Z,20.70
2019-02-12T07:13:54.799Z,22.00
2019-02-12T07:19:21.759Z,20.10
2019-02-12T07:25:05.548Z,20.03
2019-02-12T07:31:01.043Z,22.63
2019-02-12T07:36:33.324Z,11.13
2019-02-12T07:42:19.483Z,15.77
2019-02-12T07:48:00.841Z,19.03
2019-02-12T07:53:31.622Z,17.87
2019-02-12T07:59:08.838Z,20.33
2019-02-12T08:04:59.495Z,25.67
2019-02-12T08:10:49.128Z,10.00
2019-02-12T08:16:14.446Z,19.47
2019-02-12T08:21:54.178Z,21.67
2019-02-12T08:27:37.197Z,13.73
2019-02-12T08:33:12.845Z,23.03
2019-02-12T08:39:04.076Z,12.20
2019-02-12T08:44:31.249Z,23.27
2019-02-12T08:50:01.845Z,10.87
2019-02-12T08:55:33.282Z,22.50
2019-02-12T09:01:02.110Z,20.50
2019-02-12T09:06:37.094Z,15.50
2019-02-12T09:12:06.057Z,13.50
2019-02-12T09:17:59.094Z,14.57
2019-02-12T09:23:30.727Z,15.83
2019-02-12T09:29:00.258Z,18.77
2019-02-12T09:34:42.147Z,14.47
2019-02-12T09:40:19.093Z,12.60
2019-02-12T09:46:23.799Z,15.40
2019-02-12T09:52:23.334Z,19.37
2019-02-12T09:58:03.975Z,14.40
2019-02-12T10:03:56.802Z,8.33
2019-02-12T10:09:28.494Z,8.00
2019-02-12T10:14:59.073Z,12.47
2019-02-12T10:20:15.696Z,12.73
2019-02-12T10:25:57.213Z,19.37
2019-02-12T10:31:40.610Z,32.03
2019-02-12T10:36:43.219Z,20.00
2019-02-12T10:41:46.525Z,17.60
2019-02-12T10:46:49.873Z,6.93
2019-02-12T10:51:52.699Z,12.33
2019-02-12T10:56:55.881Z,13.90
2019-02-12T11:01:59.056Z,14.47
2019-02-12T11:07:02.852Z,20.97
2019-02-12T11:12:06.370Z,17.73
2019-02-12T11:17:09.400Z,14.10
2019-02-12T11:22:12.915Z,17.40
2019-02-12T11:27:16.197Z,14.37
2019-02-12T11:32:19.374Z,20.37
2019-02-12T11:37:22.540Z,17.50
2019-02-12T11:42:26.101Z,16.87
2019-02-12T11:47:29.592Z,14.97
2019-02-12T11:52:32.102Z,24.03
2019-02-12T11:57:35.589Z,14.40
2019-02-12T12:02:42.019Z,22.27
2019-02-12T12:07:43.955Z,24.60
2019-02-12T12:12:47.471Z,15.37
2019-02-12T12:17:50.686Z,15.47
2019-02-12T12:22:53.576Z,11.67
2019-02-12T12:27:56.656Z,16.47
2019-02-12T12:32:59.856Z,18.47
2019-02-12T12:38:02.838Z,8.30
2019-02-12T12:43:06.038Z,11.90
2019-02-12T12:48:09.280Z,13.63
2019-02-12T12:53:12.565Z,16.30
2019-02-12T12:58:15.771Z,10.00
2019-02-12T13:03:19.252Z,18.80
2019-02-12T13:08:22.155Z,9.50
2019-02-12T13:13:24.768Z,13.00
2019-02-12T13:18:28.030Z,6.67
2019-02-12T13:23:31.395Z,25.63
2019-02-12T13:28:34.902Z,12.83
2019-02-12T13:33:40.585Z,10.30
2019-02-12T13:38:43.589Z,7.97
2019-02-12T13:43:46.189Z,13.97
2019-02-12T13:48:49.572Z,7.87
2019-02-12T13:53:54.279Z,11.83
2019-02-12T13:58:57.248Z,9.17
2019-02-12T14:04:00.702Z,9.50
2019-02-12T14:09:04.607Z,5.23
2019-02-12T14:14:07.489Z,9.00
2019-02-12T14:19:10.672Z,6.47
2019-02-12T14:24:14.285Z,11.17
2019-02-12T14:29:17.818Z,7.30
2019-02-12T14:34:21.512Z,7.20
2019-02-12T14:39:23.937Z,7.60
2019-02-12T14:44:26.920Z,8.50
2019-02-12T14:49:29.795Z,12.87
2019-02-12T14:54:33.104Z,8.83
2019-02-12T14:59:36.583Z,5.03
2019-02-12T15:04:40.246Z,4.73
2019-02-12T15:09:43.618Z,4.20
2019-02-12T15:14:47.176Z,10.63
2019-02-12T15:19:50.141Z,7.90
2019-02-12T15:24:53.367Z,5.80
2019-02-12T15:29:55.990Z,8.43
2019-02-12T15:34:59.564Z,15.43
2019-02-12T15:40:03.122Z,8.17
2019-02-12T15:45:07.166Z,23.93
2019-02-12T15:50:10.732Z,9.20
2019-02-12T15:55:13.292Z,8.57
2019-02-12T16:00:18.536Z,14.47
2019-02-12T16:05:22.726Z,5.47
2019-02-12T16:10:26.021Z,7.97
2019-02-12T16:15:29.638Z,5.50
2019-02-12T16:20:33.129Z,5.80
2019-02-12T16:25:36.473Z,10.43
2019-02-12T16:30:39.990Z,11.47
2019-02-12T16:35:43.200Z,11.43
2019-02-12T16:40:47.725Z,14.70
2019-02-12T16:45:56.148Z,20.77
2019-02-12T16:50:59.705Z,18.77
2019-02-12T16:56:08.087Z,19.73
2019-02-12T17:01:07.873Z,10.83
2019-02-12T17:06:11.723Z,27.80
2019-02-12T17:11:15.315Z,17.40
2019-02-12T17:16:18.192Z,20.23
2019-02-12T17:21:21.825Z,15.83
2019-02-12T17:26:24.830Z,20.03
2019-02-12T17:31:27.799Z,25.20
2019-02-12T17:36:31.384Z,26.00
2019-02-12T17:41:35.013Z,18.87
2019-02-12T17:46:38.581Z,17.20
2019-02-12T17:51:42.599Z,22.80
2019-02-12T17:56:45.885Z,25.87
2019-02-12T18:01:50.069Z,37.60
2019-02-12T18:06:53.371Z,25.03
2019-02-12T18:11:56.978Z,43.23
2019-02-12T18:17:01.151Z,47.77
2019-02-12T18:22:04.163Z,48.03
2019-02-12T18:27:07.794Z,28.37
2019-02-12T18:32:11.422Z,34.50
2019-02-12T18:37:15.128Z,19.93
2019-02-12T18:42:18.800Z,36.83
2019-02-12T18:47:22.431Z,32.93
2019-02-12T18:52:25.830Z,44.30
2019-02-12T18:57:29.582Z,42.03
2019-02-12T19:02:33.416Z,41.17
2019-02-12T19:07:36.974Z,36.57
2019-02-12T19:12:40.567Z,38.13
2019-02-12T19:17:47.579Z,32.10
2019-02-12T19:22:53.860Z,31.70
2019-02-12T19:27:57.786Z,33.77
2019-02-12T19:33:03.073Z,28.73
2019-02-12T19:38:07.119Z,33.00
2019-02-12T19:43:11.433Z,52.27
2019-02-12T19:48:17.789Z,30.97
2019-02-12T19:53:21.396Z,28.97
2019-02-12T19:58:26.476Z,35.40
2019-02-12T20:03:32.486Z,25.73
2019-02-12T20:08:38.254Z,28.37
2019-02-12T20:13:45.410Z,31.53
2019-02-12T20:18:52.191Z,32.27
2019-02-12T20:23:59.337Z,28.67
2019-02-12T20:29:07.371Z,35.30
2019-02-12T20:34:11.382Z,40.30
2019-02-12T20:39:17.380Z,32.43
2019-02-12T20:44:24.887Z,32.17
2019-02-12T20:49:31.066Z,27.43
2019-02-12T20:54:36.828Z,35.43
2019-02-12T20:59:43.542Z,27.37
2019-02-12T21:04:51.030Z,32.20
2019-02-12T21:09:56.387Z,33.53
2019-02-12T21:15:02.106Z,33.50
2019-02-12T21:20:06.770Z,27.60
2019-02-12T21:25:12.445Z,28.47
2019-02-12T21:30:18.578Z,32.67
2019-02-12T21:35:24.239Z,33.13
2019-02-12T21:40:28.592Z,24.70
2019-02-12T21:45:32.069Z,22.23
2019-02-12T21:50:35.938Z,26.67
2019-02-12T21:55:38.938Z,27.07
2019-02-12T22:00:42.491Z,32.77
2019-02-12T22:05:45.518Z,29.97
2019-02-12T22:10:48.807Z,21.27
2019-02-12T22:15:51.754Z,30.83
2019-02-12T22:20:54.967Z,29.00
2019-02-12T22:25:58.347Z,27.70
2019-02-12T22:31:02.030Z,23.27
2019-02-12T22:36:05.323Z,31.53
2019-02-12T22:41:08.739Z,29.00
2019-02-12T22:46:12.394Z,35.67
2019-02-12T22:51:15.246Z,49.67
2019-02-12T22:56:18.175Z,39.80
2019-02-12T23:01:31.402Z,42.03
2019-02-12T23:06:34.314Z,32.83
2019-02-12T23:11:37.502Z,37.87
2019-02-12T23:16:40.916Z,40.20
2019-02-12T23:21:44.253Z,35.20
2019-02-12T23:26:47.604Z,35.03
2019-02-12T23:31:50.779Z,39.40
2019-02-12T23:36:54.182Z,43.07
2019-02-12T23:41:57.742Z,31.73
2019-02-12T23:47:00.604Z,32.27
2019-02-12T23:52:04.136Z,47.47
2019-02-12T23:57:07.428Z,34.40
